Beverly, Washington
Current Conditions -  °F | °C
As of 3:56 AM on Saturday 25 Oct 2014 (Local Time) from K1YT Reporting Station
Broken Clouds Broken Clouds  
Wind Chill: 47°   Ceiling: 2400
Heat Index: 49°   Visibility: 10mi
Dew Point: 46°   Wind: 6mph
Humidity: 89%   Direction: 100°E
Pressure: 29.78"   Gusts: NA
Location:  46.84°N, 119.94°W
Report Text: K1YT 251056Z AUTO 10005KT 10SM BKN024 10/08 A2978 RMK AO2 SLPNO T00970080
Loading
Personal Weather Stations






























Interactive Weather Map
Tropical Storm Tracking
New forecast layout! Learn more

10-Day Weather Forecast

Advertisements
Track Severe Weather on mobile